Aérodrome :
LOGIN :

S'inscrire | Disclaimer

   EN    FR    IT 

 










Légende :    VFR   VFR Marginal   IFR   IFR Intensif   IFR Très Intensif
Visi : 
Plafond : 
>= 8 km
>= 3000ft
5 à 8 km
1000 à 3000 ft
1500m à 5 km
500 à 1000 ft
800 à 1500m
200 à 500 ft
< 800m
< 200 ft
Symboles :   Orages  Brouillard  Fortes neiges  Fortes précipitations  Vent > 20 kt
SIGMETs :   Divers  Orages  Givrage  Turbulence  Onde Orograph.  Cendres Volcan.






- Altitude de l'aérodrome : 162 ft
- Code IATA : BOD


LFBD - Bordeaux / Merignac

DERNIER METAR :
  • 150130Z AUTO 20011KT CAVOK 13/07 Q1008 NOSIG

METARs EXPIRÉS :
  • 150100Z AUTO 21010KT CAVOK 12/08 Q1008 NOSIG
  • 150030Z AUTO 20010KT CAVOK 12/07 Q1008 NOSIG
  • 150000Z AUTO 21009KT CAVOK 12/08 Q1009 NOSIG
  • 142330Z AUTO 18010KT CAVOK 12/08 Q1008 NOSIG
  • 142300Z AUTO 20010KT CAVOK 13/08 Q1009 NOSIG

TAF TAF LFBD
Valide du 15 à 00h jusqu'au 16 à 06h UTC


142300Z 1500/1606 20010KT CAVOK TX14/1514Z TN08/1605Z
TEMPO 1509/1514 BKN014 BKN050
BECMG 1519/1521 14006KT
PROB30 1604/1606 2000 BR OVC002
ATIS : +33 5 57 92 81 04



MET'MAP, la Météo Aéronautique d'un coup d'oeil ! - Copyright ORBIFLY Décembre 2007 - Disclaimer

ORBIFLY MET'MAP TEAM :

Programmation & Développement : Alexandra Zaïnal
Sur une idée originale de : Baudouin d'Aumeries
Assistance à la programmation : Marc-Olivier Méhu
Soutien technique & logistique : Manuel Goepfert

Contact : metmap@orbifly.com




SOURCES & CREDITS :

   NOAA